createdAt,value
2022-10-11T00:02:26.443Z,100.00
2022-10-11T00:05:28.476Z,100.00
2022-10-11T00:08:30.322Z,100.00
2022-10-11T00:11:32.075Z,100.00
2022-10-11T00:14:34.149Z,100.00
2022-10-11T00:17:35.890Z,100.00
2022-10-11T00:20:37.763Z,100.00
2022-10-11T00:23:39.528Z,100.00
2022-10-11T00:26:46.534Z,100.00
2022-10-11T00:29:48.878Z,100.00
2022-10-11T00:32:50.669Z,100.00
2022-10-11T00:35:52.306Z,100.00
2022-10-11T00:38:54.111Z,100.00
2022-10-11T00:41:55.937Z,100.00
2022-10-11T00:45:26.976Z,100.00
2022-10-11T00:48:43.206Z,100.00
2022-10-11T00:51:51.411Z,100.00
2022-10-11T00:54:53.061Z,100.00
2022-10-11T00:57:57.046Z,100.00
2022-10-11T01:00:58.837Z,100.00
2022-10-11T01:04:02.254Z,100.00
2022-10-11T01:07:04.016Z,100.00
2022-10-11T01:10:07.037Z,100.00
2022-10-11T01:13:14.374Z,100.00
2022-10-11T01:16:27.832Z,100.00
2022-10-11T01:20:07.726Z,100.00
2022-10-11T01:23:39.626Z,100.00
2022-10-11T01:26:52.565Z,100.00
2022-10-11T01:30:23.199Z,100.00
2022-10-11T01:33:38.306Z,100.00
2022-10-11T01:36:55.938Z,100.00
2022-10-11T01:40:00.991Z,100.00
2022-10-11T01:43:04.442Z,100.00
2022-10-11T01:46:09.653Z,100.00
2022-10-11T01:49:11.895Z,100.00
2022-10-11T01:52:13.644Z,100.00
2022-10-11T01:55:54.684Z,100.00
2022-10-11T01:59:28.548Z,100.00
2022-10-11T02:02:46.306Z,100.00
2022-10-11T02:06:06.462Z,100.00
2022-10-11T02:09:11.156Z,100.00
2022-10-11T02:12:24.520Z,100.00
2022-10-11T02:15:30.588Z,100.00
2022-10-11T02:18:38.343Z,100.00
2022-10-11T02:21:44.009Z,100.00
2022-10-11T02:24:50.439Z,100.00
2022-10-11T02:27:57.328Z,100.00
2022-10-11T02:31:01.645Z,100.00
2022-10-11T02:34:25.276Z,100.00
2022-10-11T02:37:41.820Z,100.00
2022-10-11T02:40:48.548Z,100.00
2022-10-11T02:44:00.656Z,100.00
2022-10-11T02:47:04.253Z,100.00
2022-10-11T02:50:06.459Z,100.00
2022-10-11T02:53:08.664Z,100.00
2022-10-11T02:56:10.483Z,100.00
2022-10-11T02:59:12.397Z,100.00
2022-10-11T03:02:14.683Z,100.00
2022-10-11T03:05:16.448Z,100.00
2022-10-11T03:08:18.134Z,100.00
2022-10-11T03:11:19.851Z,100.00
2022-10-11T03:14:21.584Z,100.00
2022-10-11T03:17:36.256Z,100.00
2022-10-11T03:20:38.711Z,100.00
2022-10-11T03:23:40.428Z,100.00
2022-10-11T03:26:42.057Z,100.00
2022-10-11T03:29:43.765Z,100.00
2022-10-11T03:32:45.780Z,100.00
2022-10-11T03:35:48.695Z,100.00
2022-10-11T03:38:50.495Z,100.00
2022-10-11T03:41:52.224Z,100.00
2022-10-11T03:44:53.980Z,100.00
2022-10-11T03:47:55.649Z,100.00
2022-10-11T03:50:57.547Z,100.00
2022-10-11T03:53:59.183Z,100.00
2022-10-11T03:57:00.825Z,100.00
2022-10-11T04:00:02.589Z,100.00
2022-10-11T04:03:06.762Z,100.00
2022-10-11T04:06:08.866Z,100.00
2022-10-11T04:09:10.752Z,100.00
2022-10-11T04:12:12.711Z,100.00
2022-10-11T04:15:14.519Z,100.00
2022-10-11T04:18:16.701Z,100.00
2022-10-11T04:21:18.335Z,100.00
2022-10-11T04:24:20.300Z,100.00
2022-10-11T04:27:22.238Z,100.00
2022-10-11T04:30:23.954Z,100.00
2022-10-11T04:33:25.796Z,100.00
2022-10-11T04:36:27.362Z,100.00
2022-10-11T04:39:29.172Z,100.00
2022-10-11T04:42:30.998Z,100.00
2022-10-11T04:45:32.984Z,100.00
2022-10-11T04:48:35.531Z,100.00
2022-10-11T04:51:37.353Z,100.00
2022-10-11T04:54:39.091Z,100.00
2022-10-11T04:57:40.781Z,100.00
2022-10-11T05:00:42.453Z,100.00
2022-10-11T05:03:45.105Z,100.00
2022-10-11T05:06:46.835Z,100.00
2022-10-11T05:09:48.590Z,100.00
2022-10-11T05:12:50.352Z,100.00
2022-10-11T05:15:52.597Z,100.00
2022-10-11T05:18:54.324Z,100.00
2022-10-11T05:21:56.246Z,100.00
2022-10-11T05:24:58.067Z,100.00
2022-10-11T05:28:00.151Z,100.00
2022-10-11T05:31:01.818Z,100.00
2022-10-11T05:34:03.615Z,100.00
2022-10-11T05:37:05.759Z,100.00
2022-10-11T05:40:08.098Z,100.00
2022-10-11T05:43:09.913Z,100.00
2022-10-11T05:46:12.349Z,100.00
2022-10-11T05:49:13.995Z,100.00
2022-10-11T05:52:20.234Z,100.00
2022-10-11T05:55:22.129Z,100.00
2022-10-11T05:58:24.699Z,100.00
2022-10-11T06:01:27.392Z,100.00
2022-10-11T06:04:29.239Z,100.00
2022-10-11T06:07:31.114Z,100.00
2022-10-11T06:10:33.367Z,100.00
2022-10-11T06:13:35.799Z,100.00
2022-10-11T06:16:38.032Z,100.00
2022-10-11T06:19:39.767Z,100.00
2022-10-11T06:22:41.688Z,100.00
2022-10-11T06:25:43.476Z,100.00
2022-10-11T06:28:45.588Z,100.00
2022-10-11T06:31:48.815Z,100.00
2022-10-11T06:34:50.724Z,100.00
2022-10-11T06:37:52.442Z,100.00
2022-10-11T06:40:54.408Z,100.00
2022-10-11T06:43:56.955Z,100.00
2022-10-11T06:46:58.616Z,100.00
2022-10-11T06:50:00.420Z,100.00
2022-10-11T06:53:02.350Z,100.00
2022-10-11T06:56:09.013Z,100.00
2022-10-11T06:59:12.225Z,100.00
2022-10-11T07:02:14.041Z,100.00
2022-10-11T07:05:16.908Z,100.00
2022-10-11T07:08:18.657Z,100.00
2022-10-11T07:11:26.813Z,100.00
2022-10-11T07:14:28.848Z,100.00
2022-10-11T07:17:30.504Z,100.00
2022-10-11T07:20:32.142Z,100.00
2022-10-11T07:23:34.615Z,100.00
2022-10-11T07:26:38.933Z,100.00
2022-10-11T07:29:41.237Z,100.00
2022-10-11T07:32:42.972Z,100.00
2022-10-11T07:35:48.218Z,100.00
2022-10-11T07:38:50.659Z,100.00
2022-10-11T07:41:52.368Z,100.00
2022-10-11T07:44:54.552Z,100.00
2022-10-11T07:47:56.875Z,100.00
2022-10-11T07:51:13.782Z,100.00
2022-10-11T07:54:15.793Z,100.00
2022-10-11T07:57:17.471Z,100.00
2022-10-11T08:00:19.329Z,100.00
2022-10-11T08:03:21.054Z,100.00
2022-10-11T08:06:27.187Z,100.00
2022-10-11T08:09:29.053Z,100.00
2022-10-11T08:12:30.860Z,100.00
2022-10-11T08:15:32.936Z,100.00
2022-10-11T08:18:34.573Z,100.00
2022-10-11T08:21:36.577Z,100.00
2022-10-11T08:24:38.604Z,100.00
2022-10-11T08:27:40.458Z,100.00
2022-10-11T08:30:48.231Z,100.00
2022-10-11T08:33:50.079Z,100.00
2022-10-11T08:36:51.843Z,100.00
2022-10-11T08:39:53.500Z,100.00
2022-10-11T08:43:03.070Z,100.00
2022-10-11T08:46:08.294Z,100.00
2022-10-11T08:49:13.601Z,100.00
2022-10-11T08:52:38.038Z,100.00
2022-10-11T08:55:46.086Z,100.00
2022-10-11T08:59:12.105Z,100.00
2022-10-11T09:02:26.335Z,100.00
2022-10-11T09:05:35.682Z,100.00
2022-10-11T09:09:02.935Z,100.00
2022-10-11T09:12:29.506Z,100.00
2022-10-11T09:15:38.594Z,100.00
2022-10-11T09:19:05.592Z,100.00
2022-10-11T09:22:17.473Z,100.00
2022-10-11T09:25:25.869Z,100.00
2022-10-11T09:29:00.178Z,100.00
2022-10-11T09:32:02.908Z,100.00
2022-10-11T09:35:14.343Z,100.00
2022-10-11T09:38:31.150Z,100.00
2022-10-11T09:41:49.685Z,100.00
2022-10-11T09:44:51.815Z,100.00
2022-10-11T09:47:56.436Z,100.00
2022-10-11T09:51:12.891Z,100.00
2022-10-11T09:54:14.579Z,100.00
2022-10-11T09:57:22.386Z,100.00
2022-10-11T10:00:27.294Z,100.00
2022-10-11T10:03:37.529Z,100.00
2022-10-11T10:06:40.390Z,98.64
2022-10-11T10:09:42.120Z,99.14
2022-10-11T10:12:44.040Z,99.33
2022-10-11T10:15:48.488Z,98.76
2022-10-11T10:18:52.427Z,94.94
2022-10-11T10:21:56.065Z,95.36
2022-10-11T10:25:02.432Z,96.85
2022-10-11T10:28:24.123Z,97.78
2022-10-11T10:32:08.840Z,97.41
2022-10-11T10:35:25.948Z,96.58
2022-10-11T10:38:48.658Z,92.60
2022-10-11T10:41:53.879Z,93.27
2022-10-11T10:44:58.632Z,93.47
2022-10-11T10:49:01.720Z,91.31
2022-10-11T10:52:15.171Z,88.82
2022-10-11T10:55:32.373Z,87.44
2022-10-11T10:58:52.145Z,85.64
2022-10-11T11:02:46.403Z,83.69
2022-10-11T11:05:54.728Z,84.38
2022-10-11T11:09:15.349Z,85.50
2022-10-11T11:12:22.997Z,86.26
2022-10-11T11:15:37.978Z,85.05
2022-10-11T11:18:55.112Z,84.27
2022-10-11T11:22:10.291Z,84.34
2022-10-11T11:25:39.340Z,85.81
2022-10-11T11:28:49.996Z,87.75
2022-10-11T11:31:58.092Z,86.64
2022-10-11T11:35:03.835Z,85.50
2022-10-11T11:38:33.897Z,85.66
2022-10-11T11:41:51.550Z,84.02
2022-10-11T11:44:53.860Z,84.02
2022-10-11T11:48:20.369Z,85.72
2022-10-11T11:51:34.560Z,86.11
2022-10-11T11:54:48.732Z,85.60
2022-10-11T11:57:59.463Z,85.42
2022-10-11T12:01:21.524Z,85.42
2022-10-11T12:04:36.075Z,87.00
2022-10-11T12:07:59.852Z,86.56
2022-10-11T12:11:02.738Z,85.83
2022-10-11T12:14:28.586Z,85.11
2022-10-11T12:17:31.607Z,84.43
2022-10-11T12:20:40.807Z,83.46
2022-10-11T12:23:53.498Z,83.74
2022-10-11T12:26:58.592Z,82.42
2022-10-11T12:30:00.398Z,80.95
2022-10-11T12:33:24.654Z,80.53
2022-10-11T12:36:35.614Z,80.88
2022-10-11T12:39:45.288Z,80.69
2022-10-11T12:43:19.091Z,80.54
2022-10-11T12:46:39.677Z,80.70
2022-10-11T12:50:06.217Z,82.11
2022-10-11T12:53:37.875Z,79.45
2022-10-11T12:57:20.068Z,79.10
2022-10-11T13:00:31.820Z,78.44
2022-10-11T13:03:41.100Z,77.49
2022-10-11T13:06:49.563Z,78.09
2022-10-11T13:09:55.229Z,77.92
2022-10-11T13:13:00.308Z,78.89
2022-10-11T13:16:09.430Z,77.83
2022-10-11T13:19:14.302Z,76.79
2022-10-11T13:22:20.575Z,78.08
2022-10-11T13:25:27.804Z,77.70
2022-10-11T13:28:36.178Z,76.62
2022-10-11T13:31:40.789Z,74.76
2022-10-11T13:34:46.223Z,74.03
2022-10-11T13:37:49.021Z,74.64
2022-10-11T13:40:51.446Z,71.30
2022-10-11T13:43:55.458Z,70.50
2022-10-11T13:46:57.492Z,71.89
2022-10-11T13:50:17.144Z,73.32
2022-10-11T13:53:18.863Z,74.11
2022-10-11T13:56:21.593Z,73.73
2022-10-11T13:59:28.109Z,74.00
2022-10-11T14:02:31.418Z,73.22
2022-10-11T14:05:40.683Z,71.90
2022-10-11T14:08:42.573Z,73.16
2022-10-11T14:11:44.602Z,72.71
2022-10-11T14:14:48.132Z,72.10
2022-10-11T14:17:51.486Z,70.40
2022-10-11T14:20:53.647Z,71.37
2022-10-11T14:24:10.436Z,72.83
2022-10-11T14:27:21.470Z,72.68
2022-10-11T14:30:26.592Z,73.15
2022-10-11T14:33:29.476Z,72.61
2022-10-11T14:36:31.657Z,73.25
2022-10-11T14:39:33.672Z,73.88
2022-10-11T14:42:35.505Z,72.14
2022-10-11T14:45:37.257Z,69.31
2022-10-11T14:48:56.019Z,68.48
2022-10-11T14:51:59.106Z,69.98
2022-10-11T14:55:02.217Z,70.41
2022-10-11T14:58:05.455Z,69.85
2022-10-11T15:01:07.941Z,71.42
2022-10-11T15:04:09.923Z,69.50
2022-10-11T15:07:14.009Z,69.93
2022-10-11T15:10:30.208Z,71.98
2022-10-11T15:13:32.345Z,71.46
2022-10-11T15:16:34.878Z,72.42
2022-10-11T15:19:37.633Z,74.13
2022-10-11T15:22:39.499Z,74.34
2022-10-11T15:25:42.359Z,74.88
2022-10-11T15:28:44.607Z,76.46
2022-10-11T15:31:46.617Z,76.75
2022-10-11T15:34:48.273Z,77.34
2022-10-11T15:37:55.937Z,77.21
2022-10-11T15:40:58.575Z,79.67
2022-10-11T15:44:00.450Z,81.79
2022-10-11T15:47:02.304Z,84.25
2022-10-11T15:50:12.730Z,87.08
2022-10-11T15:53:17.207Z,89.12
2022-10-11T15:56:19.931Z,90.45
2022-10-11T15:59:21.837Z,91.77
2022-10-11T16:02:23.795Z,92.78
2022-10-11T16:05:27.677Z,94.74
2022-10-11T16:08:29.752Z,97.00
2022-10-11T16:11:31.776Z,100.00
2022-10-11T16:14:33.400Z,100.00
2022-10-11T16:17:36.892Z,100.00
2022-10-11T16:20:40.833Z,100.00
2022-10-11T16:23:43.201Z,100.00
2022-10-11T16:26:44.861Z,100.00
2022-10-11T16:29:46.692Z,100.00
2022-10-11T16:32:48.449Z,100.00
2022-10-11T16:35:50.308Z,100.00
2022-10-11T16:38:52.060Z,100.00
2022-10-11T16:41:53.934Z,100.00
2022-10-11T16:44:55.644Z,100.00
2022-10-11T16:47:57.487Z,100.00
2022-10-11T16:51:06.007Z,100.00
2022-10-11T16:54:07.916Z,100.00
2022-10-11T16:57:10.804Z,100.00
2022-10-11T17:00:13.583Z,100.00
2022-10-11T17:03:15.564Z,100.00
2022-10-11T17:06:17.962Z,100.00
2022-10-11T17:09:19.971Z,100.00
2022-10-11T17:12:23.601Z,100.00
2022-10-11T17:15:26.471Z,100.00
2022-10-11T17:18:28.667Z,100.00
2022-10-11T17:21:30.613Z,100.00
2022-10-11T17:24:34.456Z,100.00
2022-10-11T17:27:36.250Z,100.00
2022-10-11T17:30:39.148Z,100.00
2022-10-11T17:33:40.975Z,100.00
2022-10-11T17:36:43.918Z,100.00
2022-10-11T17:39:45.872Z,100.00
2022-10-11T17:42:48.128Z,100.00
2022-10-11T17:46:01.641Z,100.00
2022-10-11T17:49:06.199Z,100.00
2022-10-11T17:52:07.938Z,100.00
2022-10-11T17:55:09.919Z,100.00
2022-10-11T17:58:12.526Z,100.00
2022-10-11T18:01:17.495Z,100.00
2022-10-11T18:04:22.003Z,100.00
2022-10-11T18:07:24.391Z,100.00
2022-10-11T18:10:27.227Z,100.00
2022-10-11T18:13:29.277Z,100.00
2022-10-11T18:16:32.717Z,100.00
2022-10-11T18:19:34.868Z,100.00
2022-10-11T18:22:36.727Z,100.00
2022-10-11T18:25:38.451Z,100.00
2022-10-11T18:28:41.093Z,100.00
2022-10-11T18:31:43.152Z,100.00
2022-10-11T18:34:44.870Z,100.00
2022-10-11T18:37:46.685Z,100.00
2022-10-11T18:40:48.673Z,100.00
2022-10-11T18:43:55.219Z,100.00
2022-10-11T18:46:58.654Z,100.00
2022-10-11T18:50:01.978Z,100.00
2022-10-11T18:56:11.569Z,100.00
2022-10-11T18:59:20.467Z,100.00
2022-10-11T19:02:22.864Z,100.00
2022-10-11T19:05:24.713Z,100.00
2022-10-11T19:08:28.866Z,100.00
2022-10-11T19:11:31.784Z,100.00
2022-10-11T19:14:33.563Z,100.00
2022-10-11T19:17:35.270Z,100.00
2022-10-11T19:20:37.071Z,100.00
2022-10-11T19:23:41.834Z,100.00
2022-10-11T19:26:43.670Z,100.00
2022-10-11T19:29:45.538Z,100.00
2022-10-11T19:32:47.259Z,100.00
2022-10-11T19:35:59.702Z,100.00
2022-10-11T19:39:01.482Z,100.00
2022-10-11T19:42:05.632Z,100.00
2022-10-11T19:45:08.109Z,100.00
2022-10-11T19:48:13.372Z,100.00
2022-10-11T19:51:16.739Z,100.00
2022-10-11T19:54:18.682Z,100.00
2022-10-11T19:57:20.734Z,100.00
2022-10-11T20:00:22.428Z,100.00
2022-10-11T20:03:24.132Z,100.00
2022-10-11T20:06:27.907Z,100.00
2022-10-11T20:09:31.192Z,100.00
2022-10-11T20:12:33.527Z,100.00
2022-10-11T20:15:44.585Z,100.00
2022-10-11T20:18:55.116Z,100.00
2022-10-11T20:21:56.853Z,100.00
2022-10-11T20:24:59.982Z,100.00
2022-10-11T20:28:02.825Z,100.00
2022-10-11T20:31:12.946Z,100.00
2022-10-11T20:34:14.979Z,100.00
2022-10-11T20:37:17.178Z,100.00
2022-10-11T20:40:18.862Z,100.00
2022-10-11T20:43:21.179Z,100.00
2022-10-11T20:46:25.292Z,100.00
2022-10-11T20:49:27.271Z,100.00
2022-10-11T20:52:29.356Z,100.00
2022-10-11T20:55:31.038Z,100.00
2022-10-11T20:58:32.856Z,100.00
2022-10-11T21:01:38.725Z,100.00
2022-10-11T21:04:40.458Z,100.00
2022-10-11T21:07:42.084Z,100.00
2022-10-11T21:10:51.631Z,100.00
2022-10-11T21:14:01.679Z,100.00
2022-10-11T21:17:03.450Z,100.00
2022-10-11T21:20:06.249Z,100.00
2022-10-11T21:23:09.033Z,100.00
2022-10-11T21:26:12.859Z,100.00
2022-10-11T21:29:14.698Z,100.00
2022-10-11T21:32:16.335Z,100.00
2022-10-11T21:35:18.207Z,100.00
2022-10-11T21:38:19.867Z,100.00
2022-10-11T21:41:25.517Z,100.00
2022-10-11T21:44:27.886Z,100.00
2022-10-11T21:47:31.418Z,100.00
2022-10-11T21:50:33.302Z,100.00
2022-10-11T21:53:35.079Z,100.00
2022-10-11T21:56:36.702Z,100.00
2022-10-11T21:59:38.495Z,100.00
2022-10-11T22:02:40.648Z,100.00
2022-10-11T22:05:48.638Z,100.00
2022-10-11T22:08:50.816Z,100.00
2022-10-11T22:11:52.425Z,100.00
2022-10-11T22:14:54.067Z,100.00
2022-10-11T22:17:55.910Z,100.00
2022-10-11T22:21:10.057Z,100.00
2022-10-11T22:24:11.700Z,100.00
2022-10-11T22:27:13.415Z,100.00
2022-10-11T22:30:15.111Z,100.00
2022-10-11T22:33:17.169Z,100.00
2022-10-11T22:36:19.484Z,100.00
2022-10-11T22:39:21.207Z,100.00
2022-10-11T22:42:26.875Z,100.00
2022-10-11T22:45:29.467Z,100.00
2022-10-11T22:48:31.138Z,100.00
2022-10-11T22:51:32.820Z,100.00
2022-10-11T22:54:34.668Z,100.00
2022-10-11T22:57:36.739Z,100.00
2022-10-11T23:00:38.687Z,100.00
2022-10-11T23:03:40.359Z,100.00
2022-10-11T23:06:41.955Z,100.00
2022-10-11T23:09:43.840Z,100.00
2022-10-11T23:12:45.744Z,100.00
2022-10-11T23:15:47.664Z,100.00
2022-10-11T23:18:53.173Z,100.00
2022-10-11T23:21:55.104Z,100.00
2022-10-11T23:24:57.835Z,100.00
2022-10-11T23:28:01.117Z,100.00
2022-10-11T23:31:11.075Z,100.00
2022-10-11T23:34:13.782Z,100.00
2022-10-11T23:37:15.371Z,100.00
2022-10-11T23:40:17.106Z,100.00
2022-10-11T23:43:18.760Z,100.00
2022-10-11T23:46:21.037Z,100.00
2022-10-11T23:49:22.899Z,100.00
2022-10-11T23:52:24.419Z,100.00
2022-10-11T23:55:26.017Z,100.00
2022-10-11T23:58:27.764Z,100.00
